createdAt,value
2019-03-19T00:00:19.079Z,25.83
2019-03-19T00:02:59.191Z,27.00
2019-03-19T00:05:31.598Z,18.03
2019-03-19T00:08:05.482Z,19.53
2019-03-19T00:10:36.157Z,21.73
2019-03-19T00:13:07.664Z,21.60
2019-03-19T00:15:44.596Z,28.43
2019-03-19T00:21:14.011Z,23.53
2019-03-19T00:23:45.655Z,22.27
2019-03-19T00:26:17.192Z,27.57
2019-03-19T00:28:51.418Z,18.00
2019-03-19T00:31:22.213Z,22.03
2019-03-19T00:33:56.726Z,28.73
2019-03-19T00:36:31.305Z,19.03
2019-03-19T00:39:02.427Z,26.47
2019-03-19T00:42:07.054Z,24.00
2019-03-19T00:44:38.745Z,22.13
2019-03-19T00:47:16.558Z,27.97
2019-03-19T00:49:47.270Z,26.23
2019-03-19T00:52:20.502Z,24.63
2019-03-19T00:54:53.382Z,23.97
2019-03-19T00:58:10.943Z,21.10
2019-03-19T01:00:47.187Z,34.23
2019-03-19T01:03:23.096Z,28.33
2019-03-19T01:05:53.811Z,23.00
2019-03-19T01:08:24.574Z,31.70
2019-03-19T01:10:56.925Z,27.53
2019-03-19T01:13:27.773Z,30.13
2019-03-19T01:16:01.046Z,30.57
2019-03-19T01:18:37.758Z,27.40
2019-03-19T01:21:10.708Z,19.50
2019-03-19T01:23:43.490Z,29.87
2019-03-19T01:26:15.940Z,29.07
2019-03-19T01:28:57.626Z,26.67
2019-03-19T01:31:28.455Z,32.47
2019-03-19T01:34:49.479Z,24.03
2019-03-19T01:37:22.488Z,32.37
2019-03-19T01:39:57.214Z,35.70
2019-03-19T01:42:28.025Z,26.00
2019-03-19T01:45:01.798Z,27.03
2019-03-19T01:47:42.795Z,26.97
2019-03-19T01:50:14.297Z,26.93
2019-03-19T02:10:43.693Z,30.67
2019-03-19T02:13:17.759Z,34.83
2019-03-19T02:15:48.506Z,21.50
2019-03-19T02:18:19.207Z,24.43
2019-03-19T02:20:52.667Z,28.93
2019-03-19T02:23:30.246Z,24.23
2019-03-19T02:26:02.388Z,26.70
2019-03-19T02:28:40.783Z,26.13
2019-03-19T02:31:15.642Z,24.90
2019-03-19T02:33:56.735Z,28.67
2019-03-19T02:36:35.347Z,32.17
2019-03-19T02:39:13.018Z,26.07
2019-03-19T02:41:46.926Z,26.37
2019-03-19T02:44:21.094Z,29.07
2019-03-19T02:46:53.456Z,21.97
2019-03-19T02:49:24.652Z,27.40
2019-03-19T02:51:55.465Z,25.07
2019-03-19T02:54:27.292Z,25.43
2019-03-19T02:56:58.348Z,31.13
2019-03-19T02:59:29.419Z,28.07
2019-03-19T03:02:01.039Z,24.97
2019-03-19T03:04:35.003Z,33.17
2019-03-19T03:07:05.972Z,31.23
2019-03-19T03:09:38.925Z,25.53
2019-03-19T03:12:13.955Z,25.73
2019-03-19T03:14:46.390Z,30.20
2019-03-19T03:17:19.294Z,27.00
2019-03-19T03:19:53.698Z,24.87
2019-03-19T03:22:26.535Z,34.93
2019-03-19T03:24:57.291Z,28.20
2019-03-19T03:27:32.621Z,31.07
2019-03-19T03:30:05.814Z,24.23
2019-03-19T03:32:41.230Z,29.40
2019-03-19T03:35:15.549Z,25.03
2019-03-19T03:37:47.974Z,32.60
2019-03-19T03:40:21.700Z,28.33
2019-03-19T03:42:53.908Z,34.83
2019-03-19T03:45:24.660Z,27.80
2019-03-19T03:47:57.025Z,29.03
2019-03-19T03:50:27.797Z,24.63
2019-03-19T03:52:58.464Z,28.17
2019-03-19T03:55:31.479Z,31.70
2019-03-19T03:58:03.732Z,28.57
2019-03-19T04:00:36.180Z,25.90
2019-03-19T04:03:12.040Z,27.83
2019-03-19T04:05:45.570Z,31.27
2019-03-19T04:08:17.462Z,27.03
2019-03-19T04:10:48.142Z,33.43
2019-03-19T04:13:21.797Z,23.70
2019-03-19T04:15:52.488Z,31.20
2019-03-19T04:18:23.139Z,25.30
2019-03-19T04:20:54.051Z,36.87
2019-03-19T04:23:24.713Z,29.27
2019-03-19T04:25:56.157Z,25.90
2019-03-19T04:28:29.538Z,31.23
2019-03-19T04:31:01.961Z,27.17
2019-03-19T04:33:33.290Z,37.97
2019-03-19T04:36:04.031Z,26.33
2019-03-19T04:38:37.461Z,26.03
2019-03-19T04:41:09.646Z,30.83
2019-03-19T04:43:43.785Z,28.40
2019-03-19T04:46:17.510Z,26.83
2019-03-19T04:48:48.245Z,28.27
2019-03-19T04:51:20.851Z,28.20
2019-03-19T04:53:52.858Z,30.63
2019-03-19T04:56:23.614Z,27.30
2019-03-19T04:58:57.018Z,32.73
2019-03-19T05:01:31.360Z,34.07
2019-03-19T05:04:02.224Z,38.30
2019-03-19T05:06:33.013Z,36.13
2019-03-19T05:09:05.122Z,32.70
2019-03-19T05:11:41.793Z,35.63
2019-03-19T05:14:12.606Z,32.73
2019-03-19T05:16:48.402Z,35.67
2019-03-19T05:19:22.740Z,31.13
2019-03-19T05:21:53.574Z,38.23
2019-03-19T05:24:24.947Z,33.93
2019-03-19T05:26:55.634Z,33.60
2019-03-19T05:29:27.520Z,41.47
2019-03-19T05:36:14.109Z,32.37
2019-03-19T05:39:58.117Z,37.10
2019-03-19T05:42:34.270Z,38.13
2019-03-19T05:45:06.825Z,37.43
2019-03-19T05:47:40.317Z,49.77
2019-03-19T05:50:12.804Z,37.60
2019-03-19T05:52:43.823Z,35.07
2019-03-19T05:55:17.305Z,32.40
2019-03-19T05:57:50.492Z,43.07
2019-03-19T06:00:24.647Z,44.93
2019-03-19T06:02:56.150Z,41.27
2019-03-19T06:05:30.680Z,38.83
2019-03-19T06:08:06.890Z,38.73
2019-03-19T06:10:37.883Z,41.90
2019-03-19T06:13:09.649Z,37.90
2019-03-19T06:15:40.472Z,36.43
2019-03-19T06:18:11.318Z,41.63
2019-03-19T06:20:42.150Z,40.20
2019-03-19T06:23:12.972Z,53.97
2019-03-19T06:25:46.947Z,47.07
2019-03-19T06:28:19.433Z,57.87
2019-03-19T06:30:50.240Z,64.83
2019-03-19T06:33:21.295Z,47.63
2019-03-19T06:35:54.243Z,51.03
2019-03-19T06:38:26.308Z,55.23
2019-03-19T06:41:35.081Z,54.20
2019-03-19T06:44:07.729Z,56.87
2019-03-19T06:46:38.565Z,58.10
2019-03-19T06:49:09.305Z,53.30
2019-03-19T06:51:43.127Z,55.57
2019-03-19T06:54:13.935Z,43.07
2019-03-19T06:56:44.670Z,39.40
2019-03-19T06:59:15.446Z,36.73
2019-03-19T07:01:46.699Z,39.77
2019-03-19T07:04:19.018Z,37.57
2019-03-19T07:06:49.869Z,38.03
2019-03-19T07:09:20.605Z,39.67
2019-03-19T07:12:01.403Z,33.40
2019-03-19T07:14:31.548Z,40.77
2019-03-19T07:17:02.330Z,32.27
2019-03-19T07:19:33.042Z,34.10
2019-03-19T07:22:03.735Z,34.40
2019-03-19T07:25:34.470Z,39.10
2019-03-19T07:28:06.400Z,43.67
2019-03-19T07:30:37.140Z,36.60
2019-03-19T07:33:07.997Z,32.43
2019-03-19T07:35:40.389Z,31.03
2019-03-19T07:38:11.247Z,32.00
2019-03-19T07:40:49.686Z,30.63
2019-03-19T07:43:22.219Z,26.20
2019-03-19T07:45:53.625Z,32.60
2019-03-19T07:48:24.372Z,32.93
2019-03-19T07:50:55.186Z,33.20
2019-03-19T07:53:27.877Z,29.43
2019-03-19T07:56:00.301Z,30.80
2019-03-19T07:58:40.513Z,24.90
2019-03-19T08:01:05.747Z,40.83
2019-03-19T08:03:39.240Z,32.13
2019-03-19T08:06:10.030Z,29.77
2019-03-19T08:08:42.550Z,36.17
2019-03-19T08:11:13.475Z,31.47
2019-03-19T08:13:44.267Z,32.13
2019-03-19T08:16:26.798Z,30.17
2019-03-19T08:18:48.961Z,28.13
2019-03-19T08:21:19.773Z,32.47
2019-03-19T08:23:52.006Z,30.53
2019-03-19T08:26:22.723Z,33.33
2019-03-19T08:28:55.597Z,29.87
2019-03-19T08:31:26.131Z,27.87
2019-03-19T08:33:57.136Z,30.63
2019-03-19T08:36:27.954Z,29.60
2019-03-19T08:38:58.862Z,31.27
2019-03-19T08:41:29.761Z,29.10
2019-03-19T08:44:03.490Z,27.97
2019-03-19T08:46:34.205Z,29.93
2019-03-19T08:49:05.002Z,33.07
2019-03-19T08:51:36.112Z,28.90
2019-03-19T08:54:06.975Z,31.87
2019-03-19T08:56:37.808Z,36.17
2019-03-19T08:59:08.525Z,36.40
2019-03-19T09:01:39.270Z,27.10
2019-03-19T09:04:10.335Z,32.83
2019-03-19T09:06:41.607Z,31.30
2019-03-19T09:09:12.691Z,26.77
2019-03-19T09:11:43.471Z,35.37
2019-03-19T09:14:14.255Z,35.77
2019-03-19T09:16:45.060Z,34.43
2019-03-19T09:19:15.871Z,33.73
2019-03-19T09:21:48.169Z,30.93
2019-03-19T09:24:20.600Z,34.70
2019-03-19T09:26:52.485Z,41.20
2019-03-19T09:29:25.384Z,31.57
2019-03-19T09:31:59.316Z,34.33
2019-03-19T09:34:30.064Z,33.53
2019-03-19T09:37:00.770Z,38.47
2019-03-19T09:39:31.733Z,37.30
2019-03-19T09:42:04.168Z,35.00
2019-03-19T09:44:35.050Z,29.93
2019-03-19T09:47:07.264Z,33.67
2019-03-19T09:49:41.789Z,36.97
2019-03-19T09:52:12.659Z,39.50
2019-03-19T09:54:43.453Z,38.87
2019-03-19T09:57:14.213Z,41.20
2019-03-19T09:59:45.041Z,40.70
2019-03-19T10:02:15.918Z,40.63
2019-03-19T10:04:46.703Z,44.83
2019-03-19T10:07:18.035Z,44.30
2019-03-19T10:09:48.843Z,42.50
2019-03-19T10:12:19.642Z,40.17
2019-03-19T10:14:51.719Z,34.27
2019-03-19T10:17:22.571Z,35.40
2019-03-19T10:19:54.587Z,36.83
2019-03-19T10:22:41.646Z,35.77
2019-03-19T10:25:12.529Z,36.47
2019-03-19T10:27:44.675Z,39.67
2019-03-19T10:30:20.336Z,45.47
2019-03-19T10:32:52.486Z,44.87
2019-03-19T10:35:24.195Z,42.10
2019-03-19T10:38:00.525Z,37.40
2019-03-19T10:40:32.565Z,38.47
2019-03-19T10:43:03.897Z,44.43
2019-03-19T10:45:56.813Z,37.23
2019-03-19T10:48:23.065Z,39.10
2019-03-19T10:50:53.842Z,39.47
2019-03-19T10:53:25.720Z,44.27
2019-03-19T10:55:56.422Z,44.37
2019-03-19T10:58:28.814Z,42.17
2019-03-19T11:00:59.601Z,40.27
2019-03-19T11:03:32.464Z,46.67
2019-03-19T11:06:06.546Z,51.30
2019-03-19T11:08:41.612Z,42.97
2019-03-19T11:11:12.829Z,54.13
2019-03-19T11:13:45.178Z,46.77
2019-03-19T11:16:17.927Z,37.90
2019-03-19T11:18:50.404Z,38.63
2019-03-19T11:21:21.126Z,35.40
2019-03-19T11:23:53.174Z,36.90
2019-03-19T11:26:23.934Z,36.10
2019-03-19T11:28:57.290Z,34.00
2019-03-19T11:31:28.137Z,33.70
2019-03-19T11:34:01.994Z,33.87
2019-03-19T11:36:32.790Z,33.87
2019-03-19T11:39:04.396Z,28.03
2019-03-19T11:41:35.081Z,34.03
2019-03-19T11:44:08.290Z,33.03
2019-03-19T11:46:39.085Z,28.57
2019-03-19T11:49:14.944Z,24.03
2019-03-19T11:51:45.830Z,33.00
2019-03-19T11:54:17.589Z,31.77
2019-03-19T11:56:51.069Z,27.20
2019-03-19T11:59:23.790Z,24.70
2019-03-19T12:01:56.117Z,26.27
2019-03-19T12:04:27.085Z,19.30
2019-03-19T12:07:00.062Z,23.67
2019-03-19T12:09:34.030Z,24.30
2019-03-19T12:12:11.592Z,23.87
2019-03-19T12:14:49.129Z,18.93
2019-03-19T12:17:20.856Z,16.87
2019-03-19T12:19:51.759Z,16.60
2019-03-19T12:22:22.597Z,24.17
2019-03-19T12:24:53.801Z,18.17
2019-03-19T12:27:31.418Z,20.57
2019-03-19T12:30:05.205Z,16.20
2019-03-19T12:32:39.442Z,16.40
2019-03-19T12:35:12.407Z,17.73
2019-03-19T12:37:43.128Z,15.03
2019-03-19T12:40:15.606Z,17.50
2019-03-19T12:42:51.461Z,16.20
2019-03-19T12:45:25.819Z,16.70
2019-03-19T12:47:56.565Z,18.87
2019-03-19T12:50:27.385Z,16.77
2019-03-19T12:53:00.106Z,17.43
2019-03-19T12:55:33.592Z,15.73
2019-03-19T12:58:04.324Z,15.20
2019-03-19T13:00:40.148Z,15.07
2019-03-19T13:03:11.082Z,15.17
2019-03-19T13:05:45.079Z,15.30
2019-03-19T13:08:15.889Z,11.20
2019-03-19T13:10:46.717Z,14.20
2019-03-19T13:13:19.515Z,18.80
2019-03-19T13:15:51.395Z,16.23
2019-03-19T13:18:24.808Z,12.67
2019-03-19T13:20:55.701Z,17.73
2019-03-19T13:23:36.734Z,16.90
2019-03-19T13:26:10.059Z,19.67
2019-03-19T13:28:43.214Z,17.07
2019-03-19T13:31:25.930Z,14.37
2019-03-19T13:33:59.557Z,16.67
2019-03-19T13:36:32.377Z,18.60
2019-03-19T13:39:05.737Z,15.83
2019-03-19T13:41:37.918Z,18.60
2019-03-19T13:44:11.192Z,19.53
2019-03-19T13:46:43.777Z,11.60
2019-03-19T13:49:16.850Z,17.87
2019-03-19T13:51:47.730Z,17.23
2019-03-19T13:54:18.488Z,12.53
2019-03-19T13:56:49.646Z,16.17
2019-03-19T13:59:21.548Z,14.23
2019-03-19T14:01:52.278Z,17.70
2019-03-19T14:04:26.408Z,22.60
2019-03-19T14:06:57.939Z,21.37
2019-03-19T14:09:28.726Z,24.13
2019-03-19T14:12:00.654Z,17.30
2019-03-19T14:14:37.005Z,20.77
2019-03-19T14:17:07.770Z,21.13
2019-03-19T14:19:40.453Z,17.43
2019-03-19T14:22:11.101Z,24.17
2019-03-19T14:24:42.854Z,20.27
2019-03-19T14:27:13.776Z,18.73
2019-03-19T14:29:44.642Z,18.53
2019-03-19T14:32:18.370Z,18.60
2019-03-19T14:34:50.363Z,21.80
2019-03-19T14:37:22.913Z,17.90
2019-03-19T14:39:54.295Z,17.83
2019-03-19T14:42:26.483Z,14.83
2019-03-19T14:45:00.202Z,16.73
2019-03-19T14:47:31.990Z,21.17
2019-03-19T14:50:05.693Z,20.80
2019-03-19T14:52:36.485Z,20.73
2019-03-19T14:55:08.233Z,17.87
2019-03-19T14:57:39.394Z,18.10
2019-03-19T15:00:11.937Z,21.10
2019-03-19T15:02:42.736Z,17.83
2019-03-19T15:05:14.199Z,17.87
2019-03-19T15:07:45.178Z,17.90
2019-03-19T15:10:17.663Z,16.90
2019-03-19T15:12:49.786Z,18.17
2019-03-19T15:15:23.319Z,21.03
2019-03-19T15:17:54.047Z,16.10
2019-03-19T15:20:25.014Z,17.83
2019-03-19T15:22:55.871Z,13.87
2019-03-19T15:25:26.718Z,17.70
2019-03-19T15:27:57.443Z,16.10
2019-03-19T15:30:31.748Z,15.40
2019-03-19T15:33:03.157Z,20.87
2019-03-19T15:35:33.979Z,15.93
2019-03-19T15:38:04.726Z,14.43
2019-03-19T15:40:38.278Z,12.93
2019-03-19T15:43:13.382Z,17.60
2019-03-19T15:45:46.193Z,13.67
2019-03-19T15:48:19.204Z,21.63
2019-03-19T15:50:50.589Z,19.03
2019-03-19T15:53:21.474Z,19.63
2019-03-19T15:55:52.282Z,19.77
2019-03-19T15:58:23.147Z,20.03
2019-03-19T16:00:53.969Z,18.50
2019-03-19T16:03:24.716Z,15.17
2019-03-19T16:05:55.501Z,14.43
2019-03-19T16:08:26.302Z,12.97
2019-03-19T16:10:57.071Z,15.60
2019-03-19T16:13:29.173Z,17.97
2019-03-19T16:16:01.356Z,11.57
2019-03-19T16:18:32.083Z,14.40
2019-03-19T16:21:04.629Z,17.10
2019-03-19T16:23:35.360Z,12.20
2019-03-19T16:26:06.266Z,13.40
2019-03-19T16:28:42.118Z,10.33
2019-03-19T16:31:12.977Z,14.27
2019-03-19T16:33:43.748Z,13.37
2019-03-19T16:36:17.030Z,16.07
2019-03-19T16:38:47.846Z,7.77
2019-03-19T16:41:18.737Z,12.23
2019-03-19T16:43:49.490Z,16.30
2019-03-19T16:46:20.330Z,12.20
2019-03-19T16:48:51.103Z,11.57
2019-03-19T16:51:23.413Z,12.23
2019-03-19T16:53:57.102Z,14.77
2019-03-19T16:56:32.382Z,13.53
2019-03-19T16:59:03.141Z,19.10
2019-03-19T17:01:34.021Z,15.10
2019-03-19T17:04:08.024Z,16.37
2019-03-19T17:06:40.973Z,16.27
2019-03-19T17:09:11.958Z,15.90
2019-03-19T17:11:42.792Z,15.60
2019-03-19T17:14:13.561Z,14.57
2019-03-19T17:16:44.346Z,16.30
2019-03-19T17:19:17.335Z,19.90
2019-03-19T17:21:53.340Z,21.87
2019-03-19T17:24:24.074Z,24.90
2019-03-19T17:27:00.231Z,15.30
2019-03-19T17:29:31.026Z,23.07
2019-03-19T17:32:12.914Z,22.07
2019-03-19T17:34:42.935Z,19.97
2019-03-19T17:37:15.702Z,29.33
2019-03-19T17:39:46.477Z,36.93
2019-03-19T17:42:17.408Z,18.60
2019-03-19T17:44:48.211Z,22.17
2019-03-19T17:47:26.005Z,25.63
2019-03-19T17:49:56.754Z,27.33
2019-03-19T17:52:27.641Z,24.17
2019-03-19T17:54:58.491Z,26.83
2019-03-19T17:57:32.650Z,14.27
2019-03-19T18:00:10.835Z,17.47
2019-03-19T18:02:41.695Z,21.50
2019-03-19T18:05:15.700Z,20.13
2019-03-19T18:07:48.106Z,24.97
2019-03-19T18:10:19.074Z,17.30
2019-03-19T18:13:00.466Z,20.23
2019-03-19T18:15:39.323Z,22.10
2019-03-19T18:18:12.745Z,17.97
2019-03-19T18:20:44.847Z,23.27
2019-03-19T18:23:18.613Z,16.57
2019-03-19T18:25:51.733Z,22.37
2019-03-19T18:28:26.062Z,20.10
2019-03-19T18:31:03.804Z,16.10
2019-03-19T18:33:39.878Z,20.53
2019-03-19T18:36:18.440Z,16.50
2019-03-19T18:38:52.186Z,20.10
2019-03-19T18:41:24.921Z,19.43
2019-03-19T18:44:01.747Z,22.23
2019-03-19T18:46:35.494Z,17.33
2019-03-19T18:49:17.092Z,24.00
2019-03-19T18:51:53.546Z,20.13
2019-03-19T18:54:54.335Z,22.53
2019-03-19T18:57:28.346Z,20.97
2019-03-19T19:00:01.859Z,22.70
2019-03-19T19:02:33.266Z,21.00
2019-03-19T19:05:04.286Z,25.97
2019-03-19T19:07:38.686Z,21.27
2019-03-19T19:10:10.916Z,22.90
2019-03-19T19:12:44.687Z,21.10
2019-03-19T19:15:15.763Z,26.17
2019-03-19T19:17:46.480Z,35.50
2019-03-19T19:20:24.843Z,33.63
2019-03-19T19:22:59.619Z,25.83
2019-03-19T19:25:30.355Z,33.47
2019-03-19T19:28:04.840Z,35.30
2019-03-19T19:30:35.895Z,35.37
2019-03-19T19:33:06.779Z,29.33
2019-03-19T19:35:39.912Z,33.23
2019-03-19T19:38:10.809Z,23.40
2019-03-19T19:40:43.491Z,30.47
2019-03-19T19:43:14.547Z,22.90
2019-03-19T19:45:45.494Z,28.70
2019-03-19T19:48:16.400Z,33.20
2019-03-19T19:50:49.677Z,28.63
2019-03-19T19:53:20.895Z,28.53
2019-03-19T19:55:51.951Z,30.03
2019-03-19T19:58:22.889Z,31.27
2019-03-19T20:00:56.245Z,30.83
2019-03-19T20:03:27.076Z,29.37
2019-03-19T20:05:58.047Z,30.27
2019-03-19T20:08:28.927Z,31.27
2019-03-19T20:10:59.733Z,28.60
2019-03-19T20:13:30.658Z,30.23
2019-03-19T20:16:01.730Z,26.93
2019-03-19T20:18:32.644Z,27.40
2019-03-19T20:21:03.378Z,30.47
2019-03-19T20:23:35.128Z,33.57
2019-03-19T20:26:05.962Z,33.53
2019-03-19T20:28:39.331Z,34.10
2019-03-19T20:31:11.094Z,37.23
2019-03-19T20:33:46.121Z,34.90
2019-03-19T20:36:16.923Z,35.03
2019-03-19T20:38:48.854Z,40.27
2019-03-19T20:41:19.691Z,37.57
2019-03-19T20:43:52.361Z,41.10
2019-03-19T20:46:23.093Z,36.90
2019-03-19T20:48:53.822Z,34.93
2019-03-19T20:51:24.589Z,37.63
2019-03-19T20:53:56.857Z,29.30
2019-03-19T20:56:27.618Z,39.03
2019-03-19T20:58:58.590Z,33.10
2019-03-19T21:01:29.758Z,36.13
2019-03-19T21:04:00.786Z,35.20
2019-03-19T21:06:33.571Z,36.97
2019-03-19T21:09:05.954Z,37.03
2019-03-19T21:11:36.850Z,37.63
2019-03-19T21:14:07.868Z,34.80
2019-03-19T21:16:38.688Z,40.23
2019-03-19T21:19:09.446Z,40.03
2019-03-19T21:21:40.839Z,36.83
2019-03-19T21:24:11.686Z,40.27
2019-03-19T21:26:42.378Z,41.30
2019-03-19T21:29:13.140Z,32.70
2019-03-19T21:31:45.415Z,40.40
2019-03-19T21:34:16.309Z,41.93
2019-03-19T21:36:47.416Z,30.23
2019-03-19T21:39:19.294Z,35.20
2019-03-19T21:41:50.930Z,39.33
2019-03-19T21:44:23.204Z,41.90
2019-03-19T21:46:53.987Z,35.67
2019-03-19T21:49:25.113Z,39.20
2019-03-19T21:51:56.044Z,47.60
2019-03-19T21:54:26.746Z,46.17
2019-03-19T21:56:58.286Z,48.47
2019-03-19T21:59:30.852Z,53.80
2019-03-19T22:02:06.851Z,55.57
2019-03-19T22:04:38.988Z,55.37
2019-03-19T22:07:10.450Z,49.67
2019-03-19T22:09:43.997Z,47.77
2019-03-19T22:12:15.127Z,47.13
2019-03-19T22:14:48.288Z,46.57
2019-03-19T22:17:20.251Z,52.70
2019-03-19T22:19:54.067Z,47.57
2019-03-19T22:22:24.909Z,47.37
2019-03-19T22:24:55.962Z,47.87
2019-03-19T22:27:27.239Z,44.00
2019-03-19T22:29:59.454Z,51.57
2019-03-19T22:32:30.133Z,51.60
2019-03-19T22:35:05.071Z,49.53
2019-03-19T22:37:36.154Z,57.53
2019-03-19T22:40:09.246Z,48.53
2019-03-19T22:42:41.056Z,50.43
2019-03-19T22:45:12.920Z,54.90
2019-03-19T22:47:44.290Z,56.50
2019-03-19T22:50:15.941Z,51.03
2019-03-19T22:52:48.337Z,64.30
2019-03-19T22:55:28.523Z,53.97
2019-03-19T22:57:52.684Z,62.53
2019-03-19T23:00:54.221Z,64.67
2019-03-19T23:03:26.893Z,57.10
2019-03-19T23:05:57.689Z,60.10
2019-03-19T23:08:29.661Z,78.20
2019-03-19T23:11:01.749Z,69.17
2019-03-19T23:13:32.947Z,67.37
2019-03-19T23:16:07.605Z,67.37
2019-03-19T23:18:39.141Z,57.93
2019-03-19T23:21:09.986Z,74.47
2019-03-19T23:23:45.727Z,67.77
2019-03-19T23:26:22.333Z,62.80
2019-03-19T23:28:53.246Z,63.20
2019-03-19T23:31:24.049Z,67.90
2019-03-19T23:33:56.467Z,72.13
2019-03-19T23:36:28.477Z,64.10
2019-03-19T23:38:59.221Z,68.57
2019-03-19T23:41:31.049Z,64.97
2019-03-19T23:44:04.349Z,64.17
2019-03-19T23:46:37.391Z,75.47
2019-03-19T23:49:08.184Z,62.37
2019-03-19T23:51:42.745Z,69.40
2019-03-19T23:54:13.706Z,68.77
2019-03-19T23:56:46.965Z,72.17
2019-03-19T23:59:17.687Z,67.00
